Stringtown, Iowa
Current Conditions -  °F | °C
As of 1:15 AM on Friday 19 Dec 2014 (Local Time) from KCSQ Reporting Station
Overcast Overcast  
Wind Chill: 22°   Ceiling: 700
Heat Index: 28°   Visibility: 7mi
Dew Point: 28°   Wind: 6mph
Humidity: 100%   Direction: 180°S
Pressure: 30.25"   Gusts: NA
Location:  40.8856°N, 94.5654°W
Report Text: KCSQ 190715Z AUTO 18005KT 7SM BKN007 OVC012 M02/M02 A3025 RMK AO2
Loading
Personal Weather Stations






























Interactive Weather Map New forecast layout! Learn more

10-Day Weather Forecast

Advertisements
Track Severe Weather on mobile